Time;durP1;ratioP1;P1;durP2;ratioP2;P2;SDS_P1;SDS_P2;PMS_P1;PMS_P2;Temp;Humidity;BMP_temperature;BMP_pressure;BME280_temperature;BME280_humidity;BME280_pressure;Samples;Min_cycle;Max_cycle;Signal;HPM_P1;HPM_P2
2022/08/10 00:00:19;;;;;;;5.97;2.42;;;;;;;19.35;51.84;102095.22;7407399;19;20543;-67
2022/08/10 00:02:18;;;;;;;5.90;2.53;;;;;;;19.32;52.11;102100.66;7407199;19;20015;-67
2022/08/10 00:04:47;;;;;;;3.50;2.28;;;;;;;19.31;52.06;102092.72;7405143;19;20390;-68
2022/08/10 00:07:15;;;;;;;7.88;2.20;;;;;;;19.31;52.14;102092.72;7408181;19;20015;-67
2022/08/10 00:09:44;;;;;;;4.13;2.30;;;;;;;19.31;52.29;102104.25;7402482;19;20082;-68
2022/08/10 00:12:12;;;;;;;3.17;1.90;;;;;;;19.28;52.26;102099.00;7400414;19;20023;-68
2022/08/10 00:14:40;;;;;;;3.97;2.63;;;;;;;19.24;52.09;102096.53;7397679;19;20036;-68
2022/08/10 00:17:09;;;;;;;3.80;2.28;;;;;;;19.20;52.35;102090.47;7399907;19;20025;-67
2022/08/10 00:19:40;;;;;;;3.50;1.88;;;;;;;19.19;52.24;102102.03;7400100;19;20019;-68
2022/08/10 00:22:10;;;;;;;4.55;2.15;;;;;;;19.18;52.74;102097.63;7399725;19;20431;-67
2022/08/10 00:24:38;;;;;;;4.75;2.67;;;;;;;19.15;52.58;102100.41;7397892;19;20544;-68
2022/08/10 00:27:07;;;;;;;3.17;2.15;;;;;;;19.14;52.48;102106.66;7399993;19;20022;-67
2022/08/10 00:29:35;;;;;;;2.17;1.92;;;;;;;19.08;52.69;102094.41;7399602;19;20046;-67
2022/08/10 00:32:04;;;;;;;6.68;2.67;;;;;;;19.04;53.00;102101.66;7399830;19;20186;-67
2022/08/10 00:34:34;;;;;;;4.82;2.03;;;;;;;18.99;52.78;102106.28;7397878;19;20101;-67
2022/08/10 00:37:06;;;;;;;5.30;2.38;;;;;;;18.91;53.01;102100.34;7399660;19;20046;-67
2022/08/10 00:39:34;;;;;;;4.53;2.28;;;;;;;18.88;53.16;102105.75;7399744;19;20014;-67
2022/08/10 00:42:03;;;;;;;2.90;2.25;;;;;;;18.82;53.26;102106.84;7399474;19;20023;-67
2022/08/10 00:44:31;;;;;;;4.03;2.20;;;;;;;18.76;53.72;102106.19;7397853;19;20031;-67
2022/08/10 00:47:00;;;;;;;8.18;2.75;;;;;;;18.71;53.57;102104.53;7399321;19;20019;-67
2022/08/10 00:49:29;;;;;;;5.63;2.17;;;;;;;18.67;54.16;102104.72;7396496;19;20015;-67
2022/08/10 00:51:57;;;;;;;5.00;2.78;;;;;;;18.62;54.08;102094.22;7396389;19;20414;-67
2022/08/10 00:54:29;;;;;;;3.80;1.98;;;;;;;18.60;54.14;102100.50;7397811;19;20037;-68
2022/08/10 00:56:59;;;;;;;8.45;2.80;;;;;;;18.55;54.31;102098.88;7399010;19;20015;-67
2022/08/10 00:59:28;;;;;;;5.78;2.83;;;;;;;18.51;54.64;102101.69;7399331;19;20097;-67
2022/08/10 01:01:56;;;;;;;6.25;2.20;;;;;;;18.48;54.70;102092.03;7396584;19;20022;-67
2022/08/10 01:04:25;;;;;;;3.25;2.17;;;;;;;18.46;54.67;102098.31;7396049;19;20475;-67
2022/08/10 01:07:08;;;;;;;4.30;2.22;;;;;;;18.40;55.41;102094.94;7396464;19;20022;-67
2022/08/10 01:09:48;;;;;;;3.35;2.40;;;;;;;18.37;55.17;102094.19;7399055;19;20019;-67
2022/08/10 01:12:26;;;;;;;7.57;2.08;;;;;;;18.32;55.45;102088.16;7398905;19;20019;-67
2022/08/10 01:15:01;;;;;;;3.05;2.25;;;;;;;18.29;55.32;102082.97;7396032;19;20366;-67
2022/08/10 01:17:39;;;;;;;3.90;2.25;;;;;;;18.30;55.51;102084.66;7397985;19;20485;-67
2022/08/10 01:20:17;;;;;;;4.35;2.60;;;;;;;18.31;55.40;102081.09;7398509;19;20032;-68
2022/08/10 01:23:09;;;;;;;4.03;2.10;;;;;;;18.29;55.70;102081.16;7393092;19;20022;-68
2022/08/10 01:26:04;;;;;;;3.10;2.33;;;;;;;18.29;55.97;102078.50;7395704;19;20074;-68
2022/08/10 01:28:43;;;;;;;4.78;2.28;;;;;;;18.30;55.55;102080.25;7398355;19;20018;-67
2022/08/10 01:31:21;;;;;;;7.50;2.97;;;;;;;18.30;55.85;102082.91;7396410;19;20014;-68
2022/08/10 01:33:55;;;;;;;4.13;2.50;;;;;;;18.27;55.75;102082.97;7396834;19;20022;-67
2022/08/10 01:36:31;;;;;;;6.20;2.47;;;;;;;18.21;56.17;102077.88;7396163;19;20031;-68
2022/08/10 01:39:03;;;;;;;4.88;2.25;;;;;;;18.18;56.27;102075.31;7397169;19;20485;-67
2022/08/10 01:41:42;;;;;;;3.80;2.55;;;;;;;18.15;56.40;102068.31;7395934;19;20022;-67
2022/08/10 01:44:12;;;;;;;5.45;2.47;;;;;;;18.14;56.38;102077.22;7396693;19;20014;-67
2022/08/10 01:46:49;;;;;;;4.53;2.80;;;;;;;18.15;56.55;102075.44;7397649;19;20010;-67
2022/08/10 01:49:17;;;;;;;8.27;3.10;;;;;;;18.13;56.58;102075.47;7397701;19;20031;-68
2022/08/10 01:51:51;;;;;;;4.72;2.47;;;;;;;18.14;56.60;102073.69;7395640;19;20014;-68
2022/08/10 01:54:24;;;;;;;5.95;2.95;;;;;;;18.13;56.56;102071.94;7395270;19;20025;-67
2022/08/10 01:56:57;;;;;;;5.43;2.55;;;;;;;18.12;56.59;102075.53;7397078;19;20050;-67
2022/08/10 01:59:31;;;;;;;4.85;2.38;;;;;;;18.09;56.61;102072.97;7394817;19;20074;-68
2022/08/10 02:02:06;;;;;;;8.13;2.83;;;;;;;18.05;57.19;102081.03;7397175;19;20046;-68
2022/08/10 02:04:39;;;;;;;2.97;2.35;;;;;;;18.01;56.98;102081.19;7395769;19;20087;-68
2022/08/10 02:07:11;;;;;;;8.13;3.22;;;;;;;17.97;57.14;102075.09;7398122;19;20409;-67
2022/08/10 02:09:44;;;;;;;4.93;2.80;;;;;;;17.95;57.39;102078.72;7396902;19;20018;-67
2022/08/10 02:12:17;;;;;;;2.97;2.20;;;;;;;17.90;57.66;102077.03;7394661;19;20026;-67
2022/08/10 02:14:49;;;;;;;4.47;2.83;;;;;;;17.87;57.60;102078.94;7394864;19;20026;-68
2022/08/10 02:17:24;;;;;;;4.63;2.85;;;;;;;17.84;57.97;102079.88;7396334;19;20412;-67
2022/08/10 02:19:55;;;;;;;3.75;2.55;;;;;;;17.80;58.07;102074.72;7395865;19;20022;-68
2022/08/10 02:22:25;;;;;;;6.13;2.78;;;;;;;17.74;57.91;102075.78;7396359;19;20010;-67
2022/08/10 02:24:56;;;;;;;5.25;2.45;;;;;;;17.65;58.78;102078.72;7394803;19;20035;-68
2022/08/10 02:27:26;;;;;;;5.18;2.40;;;;;;;17.59;58.79;102082.41;7394810;19;20043;-67
2022/08/10 02:29:57;;;;;;;6.35;2.60;;;;;;;17.55;58.77;102084.31;7395472;19;20030;-67
2022/08/10 02:32:29;;;;;;;4.82;2.80;;;;;;;17.52;58.81;102084.38;7393507;19;20022;-67
2022/08/10 02:34:59;;;;;;;4.10;2.75;;;;;;;17.49;59.09;102081.84;7394541;19;20078;-70
2022/08/10 02:37:29;;;;;;;4.00;2.75;;;;;;;17.48;59.15;102081.84;7396198;19;20019;-67
2022/08/10 02:39:58;;;;;;;4.70;2.67;;;;;;;17.47;59.46;102077.50;7395114;19;20537;-67
2022/08/10 02:42:30;;;;;;;4.57;2.90;;;;;;;17.46;59.22;102083.72;7395159;19;20023;-67
2022/08/10 02:45:05;;;;;;;9.90;3.30;;;;;;;17.42;59.46;102077.63;7393816;19;20014;-68
2022/08/10 02:47:43;;;;;;;4.50;3.08;;;;;;;17.40;59.53;102075.00;7395680;19;20018;-67
2022/08/10 02:50:20;;;;;;;3.85;2.63;;;;;;;17.36;60.02;102083.97;7395061;19;20070;-68
2022/08/10 02:52:51;;;;;;;4.60;2.65;;;;;;;17.31;59.98;102077.91;7396080;19;20074;-67
2022/08/10 02:55:29;;;;;;;3.08;2.58;;;;;;;17.30;60.00;102077.97;7393582;19;20035;-67
2022/08/10 02:58:00;;;;;;;5.07;2.90;;;;;;;17.28;60.27;102082.47;7396414;19;20018;-67
2022/08/10 03:00:29;;;;;;;3.65;2.60;;;;;;;17.26;60.39;102082.47;7395416;19;20014;-67
2022/08/10 03:03:03;;;;;;;6.88;2.70;;;;;;;17.21;60.35;102084.41;7394602;19;20031;-67
2022/08/10 03:05:31;;;;;;;3.47;2.55;;;;;;;17.17;60.65;102078.31;7392813;19;20022;-68
2022/08/10 03:08:03;;;;;;;4.20;3.10;;;;;;;17.16;60.89;102075.72;7394246;19;20015;-68
2022/08/10 03:10:35;;;;;;;11.25;2.97;;;;;;;17.13;60.72;102081.97;7394807;19;20096;-68
2022/08/10 03:13:06;;;;;;;3.22;2.80;;;;;;;17.12;60.83;102085.53;7394188;19;20025;-68
2022/08/10 03:15:37;;;;;;;5.10;3.03;;;;;;;17.08;61.01;102083.88;7394036;19;20029;-68
2022/08/10 03:18:09;;;;;;;3.58;2.78;;;;;;;17.02;61.26;102076.97;7394955;19;20014;-68
2022/08/10 03:20:41;;;;;;;3.20;2.67;;;;;;;16.94;61.33;102076.31;7394814;19;20078;-68
2022/08/10 03:23:14;;;;;;;3.63;2.72;;;;;;;16.93;61.71;102080.75;7394579;19;20018;-68
2022/08/10 03:25:45;;;;;;;6.78;3.00;;;;;;;16.88;61.70;102082.63;7394741;19;20078;-68
2022/08/10 03:28:15;;;;;;;3.78;2.72;;;;;;;16.89;61.98;102080.84;7394603;19;20378;-68
2022/08/10 03:30:45;;;;;;;3.70;3.13;;;;;;;16.85;61.79;102076.53;7394664;19;20017;-68
2022/08/10 03:33:18;;;;;;;2.92;2.60;;;;;;;16.83;62.11;102079.19;7391502;19;20482;-67
2022/08/10 03:35:47;;;;;;;4.10;2.95;;;;;;;16.81;62.32;102085.44;7392411;19;20081;-68
2022/08/10 03:38:15;;;;;;;7.30;3.03;;;;;;;16.78;62.34;102089.06;7393697;19;20018;-68
2022/08/10 03:40:47;;;;;;;5.57;3.35;;;;;;;16.74;62.58;102088.28;7393868;19;20022;-68
2022/08/10 03:43:19;;;;;;;6.55;3.95;;;;;;;16.72;62.64;102090.09;7390998;19;20018;-68
2022/08/10 03:45:50;;;;;;;4.55;3.28;;;;;;;16.68;62.81;102083.16;7398716;19;20007;-68
2022/08/10 03:48:24;;;;;;;4.20;2.97;;;;;;;16.63;62.71;102094.75;7401264;19;20041;-68
2022/08/10 03:50:54;;;;;;;5.93;2.80;;;;;;;16.60;62.88;102085.13;7398322;19;20022;-68
2022/08/10 03:53:23;;;;;;;9.70;3.75;;;;;;;16.58;62.72;102095.75;7400199;19;20022;-68
2022/08/10 03:55:52;;;;;;;8.20;4.03;;;;;;;16.55;62.95;102097.59;7400647;19;20031;-68
2022/08/10 03:58:20;;;;;;;7.50;3.33;;;;;;;16.52;63.06;102089.75;7400748;19;20027;-68
2022/08/10 04:00:51;;;;;;;6.13;3.40;;;;;;;16.48;63.14;102094.25;7400529;19;20042;-68
2022/08/10 04:03:23;;;;;;;5.10;3.15;;;;;;;16.40;63.56;102091.81;7398128;19;20014;-68
2022/08/10 04:05:51;;;;;;;5.75;3.60;;;;;;;16.42;63.80;102105.84;7400497;19;20015;-68
2022/08/10 04:08:20;;;;;;;8.05;3.25;;;;;;;16.37;63.72;102094.50;7399791;19;20428;-68
2022/08/10 04:10:48;;;;;;;6.15;3.95;;;;;;;16.34;64.09;102102.53;7399748;19;20014;-68
2022/08/10 04:13:17;;;;;;;7.43;3.88;;;;;;;16.32;64.17;102099.06;7399556;19;20026;-68
2022/08/10 04:15:45;;;;;;;7.40;4.13;;;;;;;16.31;64.45;102101.75;7400079;19;20031;-68
2022/08/10 04:18:14;;;;;;;12.25;4.15;;;;;;;16.27;64.54;102096.50;7400003;19;20014;-68
2022/08/10 04:20:50;;;;;;;5.80;3.53;;;;;;;16.25;64.67;102102.75;7397452;19;20081;-68
2022/08/10 04:23:23;;;;;;;5.93;4.20;;;;;;;16.25;64.68;102097.44;7397736;19;20022;-67
2022/08/10 04:25:52;;;;;;;5.90;3.58;;;;;;;16.22;64.53;102108.13;7400247;19;20031;-68
2022/08/10 04:28:21;;;;;;;3.97;3.53;;;;;;;16.23;64.95;102104.56;7399508;19;20170;-67
2022/08/10 04:30:52;;;;;;;5.72;3.75;;;;;;;16.22;64.89;102098.41;7399407;19;20022;-67
2022/08/10 04:33:23;;;;;;;6.13;3.97;;;;;;;16.21;65.01;102104.59;7397942;19;20081;-68
2022/08/10 04:35:55;;;;;;;7.80;4.07;;;;;;;16.21;65.26;102103.72;7395846;19;20022;-67
2022/08/10 04:38:26;;;;;;;9.50;5.63;;;;;;;16.22;65.12;102102.84;7399419;19;20018;-68
2022/08/10 04:40:55;;;;;;;7.60;4.32;;;;;;;16.22;65.26;102108.97;7399905;19;20027;-68
2022/08/10 04:43:23;;;;;;;7.45;4.00;;;;;;;16.23;65.30;102104.56;7396692;19;20018;-68
2022/08/10 04:45:52;;;;;;;5.60;3.78;;;;;;;16.23;65.46;102107.22;7396345;19;20031;-68
2022/08/10 04:48:28;;;;;;;4.93;3.63;;;;;;;16.20;65.59;102105.53;7399527;19;20023;-68
2022/08/10 04:50:59;;;;;;;6.22;3.97;;;;;;;16.21;65.60;102109.03;7399297;19;20030;-68
2022/08/10 04:53:28;;;;;;;6.70;4.45;;;;;;;16.22;65.80;102111.63;7397742;19;20035;-68
2022/08/10 04:55:56;;;;;;;10.68;3.70;;;;;;;16.22;65.63;102108.97;7395661;19;20035;-68
2022/08/10 04:58:25;;;;;;;9.38;4.30;;;;;;;16.25;66.08;102111.56;7398301;19;20388;-68
2022/08/10 05:00:53;;;;;;;7.82;4.32;;;;;;;16.24;66.17;102116.91;7397501;19;20014;-68
2022/08/10 05:03:22;;;;;;;7.57;4.45;;;;;;;16.22;66.11;102110.78;7397268;19;20423;-67
2022/08/10 05:05:50;;;;;;;8.98;4.43;;;;;;;16.19;66.47;102114.38;7398281;19;20081;-68
2022/08/10 05:08:21;;;;;;;5.88;4.68;;;;;;;16.21;66.21;102115.19;7397980;19;20034;-68
2022/08/10 05:10:50;;;;;;;8.50;5.40;;;;;;;16.25;66.36;102110.69;7397715;19;20022;-68
2022/08/10 05:13:25;;;;;;;7.03;4.00;;;;;;;16.31;66.65;102117.63;7395338;19;20018;-68
2022/08/10 05:15:53;;;;;;;8.57;4.32;;;;;;;16.34;66.59;102120.19;7398149;19;20035;-68
2022/08/10 05:18:22;;;;;;;4.72;4.20;;;;;;;16.37;66.33;102113.03;7397358;19;20014;-67
2022/08/10 05:20:50;;;;;;;8.55;4.40;;;;;;;16.42;66.53;102111.16;7395369;19;20014;-68
2022/08/10 05:23:21;;;;;;;8.32;4.55;;;;;;;16.46;66.38;102117.25;7397222;19;20015;-67
2022/08/10 05:25:50;;;;;;;9.50;4.43;;;;;;;16.51;66.12;102122.44;7397262;19;20381;-68
2022/08/10 05:28:18;;;;;;;4.68;4.18;;;;;;;16.55;66.38;102122.31;7395480;19;20019;-68
2022/08/10 05:30:47;;;;;;;7.28;4.70;;;;;;;16.60;66.03;102128.41;7397793;19;20022;-68
2022/08/10 05:33:15;;;;;;;7.10;4.22;;;;;;;16.65;66.30;102122.09;7395688;19;20019;-68
2022/08/10 05:35:44;;;;;;;4.30;3.78;;;;;;;16.66;66.39;102122.06;7395837;19;20024;-68
2022/08/10 05:38:14;;;;;;;5.53;3.60;;;;;;;16.73;66.24;102122.75;7397305;19;20026;-68
2022/08/10 05:40:45;;;;;;;4.78;3.88;;;;;;;16.82;66.26;102129.59;7397464;19;20045;-68
2022/08/10 05:43:15;;;;;;;5.05;3.83;;;;;;;16.86;65.96;102126.84;7397212;19;20022;-68
2022/08/10 05:45:43;;;;;;;6.43;4.25;;;;;;;16.93;66.06;102131.13;7396437;19;20015;-68
2022/08/10 05:48:12;;;;;;;9.90;4.78;;;;;;;16.99;65.63;102130.06;7394744;19;20015;-68
2022/08/10 05:50:40;;;;;;;21.58;13.43;;;;;;;17.04;65.85;102122.84;7396867;19;20062;-68
2022/08/10 05:53:09;;;;;;;11.38;5.97;;;;;;;17.12;65.45;102132.41;7395367;19;20023;-68
2022/08/10 05:55:38;;;;;;;9.95;4.22;;;;;;;17.20;65.57;102131.28;7395724;19;20481;-68
2022/08/10 05:58:09;;;;;;;7.50;4.32;;;;;;;17.27;65.45;102134.63;7396349;19;20019;-68
2022/08/10 06:00:45;;;;;;;6.25;4.45;;;;;;;17.35;65.00;102137.06;7396897;19;20074;-68
2022/08/10 06:03:18;;;;;;;5.63;3.65;;;;;;;17.41;64.94;102126.28;7395450;19;20485;-68
2022/08/10 06:05:49;;;;;;;7.25;3.45;;;;;;;17.47;64.96;102133.22;7394989;19;20031;-68
2022/08/10 06:08:22;;;;;;;7.10;4.22;;;;;;;17.49;65.08;102132.25;7393397;19;20019;-68
2022/08/10 06:10:55;;;;;;;8.10;4.38;;;;;;;17.51;64.87;102135.69;7396539;19;20015;-68
2022/08/10 06:16:10;;;;;;;7.85;4.18;;;;;;;17.57;64.46;102130.22;7396254;19;20026;-68
2022/08/10 06:18:39;;;;;;;6.55;3.80;;;;;;;17.63;64.67;102129.19;7396140;19;20038;-68
2022/08/10 06:21:08;;;;;;;9.55;3.70;;;;;;;17.69;64.68;102131.66;7396139;19;20015;-68
2022/08/10 06:23:38;;;;;;;5.38;3.55;;;;;;;17.74;64.22;102136.81;7394539;19;20031;-68
2022/08/10 06:26:08;;;;;;;4.10;3.63;;;;;;;17.79;64.30;102134.03;7395066;19;20070;-68
2022/08/10 06:28:41;;;;;;;4.45;3.38;;;;;;;17.81;64.53;102132.22;7393671;19;20022;-68
2022/08/10 06:31:12;;;;;;;4.43;3.50;;;;;;;17.85;64.46;102139.16;7394343;19;20074;-69
2022/08/10 06:33:42;;;;;;;6.95;3.65;;;;;;;17.91;64.29;102144.28;7393681;19;20398;-68
2022/08/10 06:36:12;;;;;;;6.78;3.22;;;;;;;17.98;64.02;102137.88;7392765;19;20014;-68
2022/08/10 06:38:46;;;;;;;5.55;4.05;;;;;;;18.05;63.98;102138.59;7394666;19;20073;-68
2022/08/10 06:41:22;;;;;;;7.10;4.10;;;;;;;18.13;63.97;102136.53;7393679;19;20014;-68
2022/08/10 06:44:00;;;;;;;5.43;3.58;;;;;;;18.24;63.80;102141.53;7393360;19;20018;-68
2022/08/10 06:46:31;;;;;;;7.85;3.20;;;;;;;18.32;63.35;102144.81;7394592;19;20078;-68
2022/08/10 06:49:04;;;;;;;5.03;3.03;;;;;;;18.38;63.29;102144.59;7393283;19;20015;-68
2022/08/10 06:51:36;;;;;;;9.18;3.92;;;;;;;18.47;62.91;102132.81;7395509;19;20022;-69
2022/08/10 06:54:08;;;;;;;6.03;3.30;;;;;;;18.54;62.67;102141.47;7393020;19;20080;-68
2022/08/10 06:56:41;;;;;;;6.72;3.20;;;;;;;18.62;62.81;102139.41;7393607;19;20018;-68
2022/08/10 06:59:18;;;;;;;6.85;3.10;;;;;;;18.69;62.06;102130.31;7395412;19;20082;-68
2022/08/10 07:01:50;;;;;;;5.13;3.00;;;;;;;18.78;61.88;102130.91;7393059;19;20155;-68
2022/08/10 07:04:25;;;;;;;5.55;3.78;;;;;;;18.84;61.83;102138.69;7394040;19;20027;-68
2022/08/10 07:06:56;;;;;;;7.93;4.20;;;;;;;18.91;61.44;102129.59;7395224;19;20067;-69
2022/08/10 07:09:26;;;;;;;9.35;3.55;;;;;;;18.99;61.06;102138.19;7392263;19;20449;-68
2022/08/10 07:11:57;;;;;;;4.97;3.35;;;;;;;19.07;61.11;102142.34;7393766;19;20082;-68
2022/08/10 07:14:30;;;;;;;6.82;3.30;;;;;;;19.13;61.00;102134.16;7392107;19;20022;-69
2022/08/10 07:17:00;;;;;;;5.78;3.55;;;;;;;19.20;61.15;102146.34;7393943;19;20046;-68
2022/08/10 07:19:30;;;;;;;4.03;2.78;;;;;;;19.24;60.80;102134.66;7397172;19;20018;-68
2022/08/10 07:21:59;;;;;;;7.28;3.67;;;;;;;19.30;60.91;102134.44;7400932;19;20536;-68
2022/08/10 07:24:31;;;;;;;4.53;3.03;;;;;;;19.36;60.65;102131.53;7398844;19;20031;-68
2022/08/10 07:27:01;;;;;;;7.95;3.17;;;;;;;19.44;60.01;102120.63;7400829;19;20022;-68
2022/08/10 07:29:33;;;;;;;5.40;3.22;;;;;;;19.53;59.96;102128.25;7400148;19;20152;-69
2022/08/10 07:32:04;;;;;;;5.55;3.53;;;;;;;19.62;59.51;102124.38;7401202;19;20031;-67
2022/08/10 07:34:33;;;;;;;7.53;3.35;;;;;;;19.73;58.62;102125.75;7399487;19;20014;-67
2022/08/10 07:37:05;;;;;;;4.53;3.00;;;;;;;19.80;58.71;102121.94;7400172;19;20035;-67
2022/08/10 07:39:37;;;;;;;6.63;3.03;;;;;;;19.94;58.25;102124.09;7398069;19;20074;-68
2022/08/10 07:42:07;;;;;;;5.65;2.83;;;;;;;20.04;57.56;102127.25;7397708;19;20031;-67
2022/08/10 07:44:41;;;;;;;8.18;4.22;;;;;;;20.15;57.54;102127.69;7397595;19;20028;-67
2022/08/10 07:47:12;;;;;;;;;;;;;;;20.24;57.36;102121.13;7398429;19;20388;-68
2022/08/10 07:49:44;;;;;;;3.38;2.83;;;;;;;20.32;57.17;102121.66;7398147;19;20289;-68
2022/08/10 07:52:12;;;;;;;3.05;2.75;;;;;;;20.41;56.22;102120.44;7400693;19;20023;-67
2022/08/10 07:54:44;;;;;;;5.25;2.88;;;;;;;20.49;55.86;102126.31;7398344;19;20094;-68
2022/08/10 07:57:20;;;;;;;4.65;2.42;;;;;;;20.58;55.30;102122.41;7400738;19;20018;-67
2022/08/10 07:59:57;;;;;;;6.28;2.88;;;;;;;20.64;53.85;102120.34;7400611;19;20017;-68
2022/08/10 08:02:30;;;;;;;5.10;2.88;;;;;;;20.73;54.24;102120.94;7400457;19;20089;-68
2022/08/10 08:05:00;;;;;;;;;;;;;;;20.81;53.63;102121.44;7399229;19;20085;-69
2022/08/10 08:07:30;;;;;;;2.95;2.63;;;;;;;20.89;53.82;102119.31;7400217;19;19919;-69
2022/08/10 08:10:00;;;;;;;3.85;2.45;;;;;;;20.96;52.98;102131.44;7400277;19;20402;-69
2022/08/10 08:12:29;;;;;;;8.18;2.42;;;;;;;21.02;53.10;102125.00;7399651;19;20019;-68
2022/08/10 08:15:02;;;;;;;5.90;2.70;;;;;;;21.12;52.04;102117.44;7397473;19;20385;-68
2022/08/10 08:17:31;;;;;;;10.50;2.50;;;;;;;21.20;52.20;102112.63;7400244;19;20036;-67
2022/08/10 08:20:01;;;;;;;4.50;2.35;;;;;;;21.28;51.61;102115.81;7399617;19;20023;-68
2022/08/10 08:22:30;;;;;;;5.43;1.70;;;;;;;21.36;50.64;102125.25;7399704;19;20030;-68
2022/08/10 08:25:00;;;;;;;8.80;2.20;;;;;;;21.44;49.97;102121.31;7397424;19;20018;-67
2022/08/10 08:27:31;;;;;;;4.55;2.08;;;;;;;21.52;49.49;102115.66;7399206;19;20049;-68
2022/08/10 08:30:06;;;;;;;5.60;1.90;;;;;;;21.59;48.10;102118.91;7399587;19;20018;-68
2022/08/10 08:32:39;;;;;;;8.20;3.63;;;;;;;21.64;48.59;102117.75;7397502;19;20364;-68
2022/08/10 08:35:10;;;;;;;6.10;2.25;;;;;;;21.71;48.41;102114.78;7403660;19;20055;-69
2022/08/10 08:37:42;;;;;;;5.32;2.00;;;;;;;21.75;47.55;102111.03;7400764;19;20489;-68
2022/08/10 08:40:15;;;;;;;2.67;1.83;;;;;;;21.80;45.67;102111.72;7399203;19;20022;-68
2022/08/10 08:43:10;;;;;;;3.05;1.73;;;;;;;21.85;44.81;102117.69;7399226;19;20018;-69
2022/08/10 08:45:58;;;;;;;1.92;1.48;;;;;;;21.87;44.61;102102.44;7398639;19;20014;-68
2022/08/10 08:48:55;;;;;;;4.57;1.73;;;;;;;21.94;43.29;102111.03;7398650;19;20347;-68
2022/08/10 08:51:35;;;;;;;3.85;1.50;;;;;;;22.00;44.39;102107.19;7398564;19;20420;-68
2022/08/10 08:54:19;;;;;;;2.92;1.50;;;;;;;22.08;43.09;102107.72;7396578;19;20485;-68
2022/08/10 08:56:55;;;;;;;2.72;2.10;;;;;;;22.15;42.63;102111.78;7398695;19;20414;-68
2022/08/10 08:59:38;;;;;;;3.22;1.30;;;;;;;22.19;42.40;102102.69;7395906;19;20015;-68
2022/08/10 09:02:26;;;;;;;2.08;1.27;;;;;;;22.24;42.40;102095.31;7398616;19;20018;-68
2022/08/10 09:05:21;;;;;;;1.88;1.58;;;;;;;22.29;41.30;102090.59;7396587;19;20485;-68
2022/08/10 09:08:12;;;;;;;3.35;0.95;;;;;;;22.38;38.30;102097.34;7396125;19;20018;-68
2022/08/10 09:10:51;;;;;;;2.17;1.30;;;;;;;22.45;39.62;102100.56;7398805;19;20102;-72
2022/08/10 09:13:28;;;;;;;2.75;1.33;;;;;;;22.54;40.99;102096.53;7396230;19;20019;-71
2022/08/10 09:16:10;;;;;;;3.03;1.20;;;;;;;22.61;39.84;102096.16;7398699;19;20015;-71
2022/08/10 09:18:51;;;;;;;2.78;0.90;;;;;;;22.72;39.52;102097.41;7396585;19;20018;-71
2022/08/10 09:21:28;;;;;;;1.70;1.38;;;;;;;22.81;39.47;102096.06;7397837;19;20018;-71
2022/08/10 09:24:04;;;;;;;3.05;1.13;;;;;;;22.87;39.46;102093.06;7395764;19;20018;-72
2022/08/10 09:26:50;;;;;;;1.67;1.23;;;;;;;22.97;39.07;102093.44;7395282;19;20488;-70
2022/08/10 09:29:25;;;;;;;1.63;1.10;;;;;;;23.04;39.24;102092.19;7396985;19;20018;-71
2022/08/10 09:32:01;;;;;;;3.15;1.20;;;;;;;23.07;38.94;102075.94;7397791;19;20014;-70
2022/08/10 09:34:37;;;;;;;4.25;1.67;;;;;;;23.14;37.16;102096.09;7395568;19;20078;-71
2022/08/10 09:37:13;;;;;;;1.70;0.80;;;;;;;23.20;36.93;102101.16;7395859;19;20018;-70
2022/08/10 09:39:47;;;;;;;1.52;0.80;;;;;;;23.23;34.76;102084.91;7397680;19;20090;-72
2022/08/10 09:42:23;;;;;;;3.28;1.20;;;;;;;23.31;37.10;102084.50;7393331;19;20070;-71
2022/08/10 09:45:08;;;;;;;3.50;1.15;;;;;;;23.38;37.14;102083.22;7394754;19;20036;-70
2022/08/10 09:47:55;;;;;;;4.20;1.52;;;;;;;23.47;36.75;102087.22;7396273;19;20070;-70
2022/08/10 09:50:37;;;;;;;3.08;1.10;;;;;;;23.52;35.64;102076.22;7397002;19;20046;-71
2022/08/10 09:53:11;;;;;;;1.25;0.70;;;;;;;23.57;36.27;102069.66;7396455;19;20014;-71
2022/08/10 09:55:45;;;;;;;1.02;0.63;;;;;;;23.60;35.21;102071.31;7396568;19;20419;-70
2022/08/10 09:58:30;;;;;;;2.42;0.90;;;;;;;23.65;34.61;102063.03;7396999;19;20035;-70
2022/08/10 10:01:07;;;;;;;5.75;0.90;;;;;;;23.71;34.77;102071.56;7395786;19;20030;-71
2022/08/10 10:03:46;;;;;;;1.35;0.77;;;;;;;23.76;33.69;102071.31;7395771;19;20022;-72
2022/08/10 10:06:21;;;;;;;1.25;0.90;;;;;;;23.82;33.99;102068.28;7396890;19;20039;-71
2022/08/10 10:09:00;;;;;;;2.40;1.00;;;;;;;23.88;34.43;102067.91;7394903;19;20011;-72
2022/08/10 10:11:38;;;;;;;1.92;0.82;;;;;;;23.96;32.83;102066.66;7396303;19;20404;-71
2022/08/10 10:14:16;;;;;;;1.40;0.88;;;;;;;24.00;33.01;102060.16;7394250;19;20101;-71
2022/08/10 10:17:02;;;;;;;2.63;1.02;;;;;;;24.00;31.38;102058.34;7396775;19;20092;-70
2022/08/10 10:19:52;;;;;;;1.58;0.90;;;;;;;24.07;32.49;102058.84;7398785;19;20026;-73
2022/08/10 10:22:53;;;;;;;4.30;0.98;;;;;;;24.12;32.21;102054.09;7396162;19;20039;-71
2022/08/10 10:25:29;;;;;;;3.45;1.02;;;;;;;24.20;32.70;102042.91;7393985;19;20035;-70
2022/08/10 10:28:12;;;;;;;1.73;0.90;;;;;;;24.27;32.88;102041.59;7393690;19;20389;-70
2022/08/10 10:30:49;;;;;;;2.95;0.82;;;;;;;24.37;32.80;102049.97;7395090;19;20027;-71
2022/08/10 10:33:26;;;;;;;1.75;0.80;;;;;;;24.45;32.87;102042.31;7395053;19;20023;-69
2022/08/10 10:35:58;;;;;;;3.80;1.00;;;;;;;24.53;32.74;102045.41;7393555;19;20015;-70
2022/08/10 10:38:37;;;;;;;4.65;4.03;;;;;;;24.60;31.30;102045.03;7393388;19;20545;-70
2022/08/10 10:41:15;;;;;;;2.22;1.27;;;;;;;24.62;32.04;102032.38;7392920;19;20509;-70
2022/08/10 10:43:57;;;;;;;4.38;1.40;;;;;;;24.64;31.14;102020.63;7393604;19;20031;-70
2022/08/10 10:46:39;;;;;;;2.90;1.20;;;;;;;24.71;32.29;102032.72;7392426;19;20087;-69
2022/08/10 10:49:20;;;;;;;1.40;0.80;;;;;;;24.74;31.69;102025.44;7393364;19;20377;-70
2022/08/10 10:52:01;;;;;;;2.20;1.10;;;;;;;24.72;31.17;102031.75;7394995;19;20372;-70
2022/08/10 10:54:41;;;;;;;1.38;1.27;;;;;;;24.74;31.55;102037.03;7391541;19;20323;-70
2022/08/10 10:57:19;;;;;;;1.45;1.10;;;;;;;24.76;31.96;102035.13;7394950;19;20014;-70
2022/08/10 11:00:02;;;;;;;2.95;1.45;;;;;;;24.81;32.31;102021.44;7395184;19;20039;-70
2022/08/10 11:02:47;;;;;;;1.30;1.20;;;;;;;24.88;32.06;102022.75;7393482;19;20023;-70
2022/08/10 11:05:25;;;;;;;2.05;1.55;;;;;;;24.97;32.52;102018.63;7392391;19;20018;-70
2022/08/10 11:07:59;;;;;;;2.42;1.67;;;;;;;25.07;32.63;102027.81;7394272;19;20023;-70
2022/08/10 11:10:36;;;;;;;4.35;1.60;;;;;;;25.18;32.01;102019.09;7394575;19;20066;-71
2022/08/10 11:13:25;;;;;;;3.15;1.40;;;;;;;25.26;31.53;102014.09;7394602;19;20473;-68
2022/08/10 11:16:02;;;;;;;3.72;1.35;;;;;;;25.32;31.10;102015.53;7393979;19;20027;-67
2022/08/10 11:18:56;;;;;;;3.35;1.60;;;;;;;25.33;31.34;102007.38;7393683;19;20028;-67
2022/08/10 11:21:38;;;;;;;3.28;1.83;;;;;;;25.39;31.65;102000.78;7392132;19;20019;-68
2022/08/10 11:24:15;;;;;;;3.15;1.75;;;;;;;25.46;31.45;102003.94;7390867;19;20031;-68
2022/08/10 11:26:50;;;;;;;3.63;1.60;;;;;;;25.54;30.93;102004.31;7393921;19;20031;-68
2022/08/10 11:29:25;;;;;;;3.40;1.80;;;;;;;25.61;31.09;102002.06;7394331;19;20066;-66
2022/08/10 11:32:03;;;;;;;2.95;1.60;;;;;;;25.75;31.48;102006.53;7391213;19;20014;-66
2022/08/10 11:34:39;;;;;;;4.35;1.80;;;;;;;25.86;31.10;101998.59;7391838;19;20094;-67
2022/08/10 11:37:16;;;;;;;2.78;1.50;;;;;;;25.93;30.42;101994.56;7392033;19;20014;-69
2022/08/10 11:39:52;;;;;;;3.10;1.65;;;;;;;25.99;30.49;102004.00;7393604;19;20098;-67
2022/08/10 11:42:40;;;;;;;3.28;2.08;;;;;;;26.03;30.56;101986.69;7393481;19;20028;-68
2022/08/10 11:45:13;;;;;;;2.72;1.33;;;;;;;26.14;30.06;102000.31;7391069;19;20086;-65
2022/08/10 11:47:48;;;;;;;2.67;1.63;;;;;;;26.27;30.34;101996.78;7391991;19;20018;-68
2022/08/10 11:50:25;;;;;;;2.42;1.70;;;;;;;26.38;29.76;101988.84;7393569;19;20014;-66
2022/08/10 11:53:01;;;;;;;6.72;2.28;;;;;;;26.53;29.62;101989.59;7393138;19;20014;-66
2022/08/10 11:55:33;;;;;;;4.97;1.90;;;;;;;26.71;29.45;101990.13;7391341;19;20023;-67